Terminal Aerodrome Forecast
Issued by NWS

Home | Current Version | Previous Version | Text Only | Print | Product List | Glossary On
Versions: 1 2 3 4 5 6 7 8 9 10 11 12 13 14 15 16
000
FTUS46 KMTR 200200 AAA
TAFSJC
TAF AMD
KSJC 200247Z 2003/2024 11003KT P6SM -RA FEW012 BKN025 OVC070
     FM200700 12003KT P6SM VCSH OVC025
     FM201800 14004KT P6SM SCT040 BKN100=

USA.gov is the U.S. government's official web portal to all federal, state and local government web resources and services.